createdAt,value
2023-03-28T00:01:06.154Z,95257.47
2023-03-28T00:03:39.679Z,95261.00
2023-03-28T00:06:18.920Z,95267.13
2023-03-28T00:08:47.715Z,95267.41
2023-03-28T00:11:22.473Z,95280.66
2023-03-28T00:14:01.101Z,95277.97
2023-03-28T00:16:37.804Z,95280.63
2023-03-28T00:19:11.895Z,95277.81
2023-03-28T00:21:43.145Z,95283.16
2023-03-28T00:24:14.174Z,95292.81
2023-03-28T00:26:43.260Z,95288.59
2023-03-28T00:29:16.191Z,95283.19
2023-03-28T00:31:43.118Z,95286.09
2023-03-28T00:34:10.086Z,95276.13
2023-03-28T00:36:39.171Z,95278.47
2023-03-28T00:39:10.509Z,95295.19
2023-03-28T00:41:42.553Z,95295.19
2023-03-28T00:44:46.809Z,95302.44
2023-03-28T00:47:28.471Z,95303.44
2023-03-28T00:50:05.766Z,95306.53
2023-03-28T00:52:40.619Z,95294.31
2023-03-28T00:55:17.719Z,95287.03
2023-03-28T00:57:46.946Z,95300.25
2023-03-28T01:00:19.084Z,95294.97
2023-03-28T01:02:52.636Z,95295.06
2023-03-28T01:05:33.018Z,95296.09
2023-03-28T01:08:08.976Z,95306.56
2023-03-28T01:10:36.294Z,95293.72
2023-03-28T01:13:03.870Z,95299.16
2023-03-28T01:15:32.762Z,95294.53
2023-03-28T01:18:03.081Z,95315.66
2023-03-28T01:20:59.060Z,95317.13
2023-03-28T01:24:16.092Z,95310.47
2023-03-28T01:27:10.863Z,95309.88
2023-03-28T01:30:08.216Z,95316.13
2023-03-28T01:33:04.755Z,95322.50
2023-03-28T01:35:55.905Z,95323.81
2023-03-28T01:38:37.414Z,95328.81
2023-03-28T01:41:35.614Z,95333.81
2023-03-28T01:44:26.523Z,95335.94
2023-03-28T01:47:08.396Z,95336.31
2023-03-28T01:50:03.752Z,95333.19
2023-03-28T01:53:06.550Z,95327.63
2023-03-28T01:55:45.397Z,95324.56
2023-03-28T01:58:21.686Z,95332.16
2023-03-28T02:01:13.909Z,95313.84
2023-03-28T02:03:48.035Z,95329.00
2023-03-28T02:06:15.481Z,95303.31
2023-03-28T02:08:45.471Z,95310.88
2023-03-28T02:11:12.527Z,95303.41
2023-03-28T02:13:46.259Z,95313.84
2023-03-28T02:16:14.390Z,95311.69
2023-03-28T02:18:47.293Z,95293.13
2023-03-28T02:21:21.232Z,95318.34
2023-03-28T02:23:52.815Z,95315.69
2023-03-28T02:26:21.896Z,95317.53
2023-03-28T02:28:54.200Z,95317.69
2023-03-28T02:31:22.542Z,95306.22
2023-03-28T02:33:51.383Z,95309.38
2023-03-28T02:36:47.246Z,95326.84
2023-03-28T02:39:46.866Z,95323.75
2023-03-28T02:42:24.834Z,95315.44
2023-03-28T02:44:57.560Z,95314.28
2023-03-28T02:47:37.087Z,95324.63
2023-03-28T02:50:35.936Z,95316.34
2023-03-28T02:53:22.403Z,95317.97
2023-03-28T02:56:02.248Z,95315.81
2023-03-28T02:58:38.768Z,95319.16
2023-03-28T03:01:07.208Z,95317.31
2023-03-28T03:03:37.650Z,95306.75
2023-03-28T03:06:05.793Z,95306.66
2023-03-28T03:08:33.327Z,95309.09
2023-03-28T03:11:00.505Z,95314.38
2023-03-28T03:13:27.444Z,95316.75
2023-03-28T03:15:54.748Z,95303.25
2023-03-28T03:18:21.950Z,95312.59
2023-03-28T03:20:50.482Z,95317.41
2023-03-28T03:23:17.788Z,95316.22
2023-03-28T03:25:45.428Z,95309.28
2023-03-28T03:28:16.473Z,95309.19
2023-03-28T03:30:43.699Z,95301.44
2023-03-28T03:33:11.556Z,95300.03
2023-03-28T03:35:46.078Z,95290.53
2023-03-28T03:38:13.861Z,95300.88
2023-03-28T03:40:41.268Z,95297.88
2023-03-28T03:43:08.129Z,95267.75
2023-03-28T03:45:53.908Z,95293.88
2023-03-28T03:48:20.748Z,95288.69
2023-03-28T03:50:47.688Z,95294.03
2023-03-28T03:53:14.545Z,95277.56
2023-03-28T03:55:41.492Z,95291.66
2023-03-28T03:58:08.460Z,95293.47
2023-03-28T04:00:37.792Z,95274.47
2023-03-28T04:03:04.865Z,95283.28
2023-03-28T04:05:31.792Z,95295.06
2023-03-28T04:08:00.594Z,95279.59
2023-03-28T04:10:27.493Z,95297.25
2023-03-28T04:12:54.346Z,95306.66
2023-03-28T04:15:21.178Z,95293.81
2023-03-28T04:17:50.577Z,95286.50
2023-03-28T04:20:17.680Z,95308.97
2023-03-28T04:22:46.368Z,95324.63
2023-03-28T04:25:14.289Z,95289.91
2023-03-28T04:27:46.498Z,95311.53
2023-03-28T04:30:18.267Z,95331.13
2023-03-28T04:32:49.728Z,95318.78
2023-03-28T04:35:17.059Z,95315.81
2023-03-28T04:37:44.037Z,95305.22
2023-03-28T04:40:16.120Z,95330.47
2023-03-28T04:42:43.918Z,95309.59
2023-03-28T04:45:11.342Z,95302.66
2023-03-28T04:47:40.253Z,95306.72
2023-03-28T04:50:09.946Z,95339.28
2023-03-28T04:52:37.173Z,95316.63
2023-03-28T04:55:05.374Z,95306.00
2023-03-28T04:57:32.422Z,95346.06
2023-03-28T04:59:59.307Z,95343.72
2023-03-28T05:02:26.438Z,95342.22
2023-03-28T05:04:53.658Z,95332.09
2023-03-28T05:07:20.704Z,95351.84
2023-03-28T05:09:48.084Z,95311.94
2023-03-28T05:12:14.959Z,95321.47
2023-03-28T05:14:42.146Z,95334.41
2023-03-28T05:17:08.967Z,95322.22
2023-03-28T05:19:35.983Z,95321.63
2023-03-28T05:22:02.899Z,95330.25
2023-03-28T05:24:29.839Z,95354.47
2023-03-28T05:26:56.947Z,95362.00
2023-03-28T05:29:24.022Z,95341.56
2023-03-28T05:31:51.031Z,95383.78
2023-03-28T05:34:17.938Z,95388.00
2023-03-28T05:36:44.825Z,95373.75
2023-03-28T05:39:12.015Z,95368.94
2023-03-28T05:41:38.857Z,95375.19
2023-03-28T05:44:05.822Z,95394.63
2023-03-28T05:46:32.740Z,95386.69
2023-03-28T05:48:59.624Z,95391.44
2023-03-28T05:51:26.504Z,95382.03
2023-03-28T05:53:53.389Z,95359.22
2023-03-28T05:56:20.313Z,95383.81
2023-03-28T05:58:48.535Z,95374.31
2023-03-28T06:01:18.650Z,95398.47
2023-03-28T06:03:46.076Z,95381.88
2023-03-28T06:06:13.746Z,95406.66
2023-03-28T06:08:40.887Z,95403.91
2023-03-28T06:11:08.276Z,95422.50
2023-03-28T06:13:35.200Z,95423.50
2023-03-28T06:16:02.145Z,95424.59
2023-03-28T06:18:29.110Z,95401.56
2023-03-28T06:20:56.209Z,95404.59
2023-03-28T06:23:23.394Z,95437.34
2023-03-28T06:25:50.512Z,95435.81
2023-03-28T06:28:17.455Z,95401.66
2023-03-28T06:30:49.402Z,95412.66
2023-03-28T06:33:16.887Z,95422.41
2023-03-28T06:35:43.859Z,95432.81
2023-03-28T06:38:11.017Z,95434.66
2023-03-28T06:40:37.937Z,95441.19
2023-03-28T06:43:04.772Z,95410.97
2023-03-28T06:45:31.648Z,95416.00
2023-03-28T06:47:58.560Z,95418.06
2023-03-28T06:50:25.528Z,95438.19
2023-03-28T06:52:52.416Z,95439.16
2023-03-28T06:55:19.451Z,95413.75
2023-03-28T06:57:46.279Z,95414.50
2023-03-28T07:00:13.747Z,95420.97
2023-03-28T07:02:40.787Z,95427.31
2023-03-28T07:05:08.209Z,95433.69
2023-03-28T07:07:35.093Z,95399.00
2023-03-28T07:10:01.958Z,95400.97
2023-03-28T07:12:28.828Z,95410.66
2023-03-28T07:14:55.734Z,95400.53
2023-03-28T07:17:22.624Z,95407.53
2023-03-28T07:19:51.334Z,95405.25
2023-03-28T07:22:18.373Z,95406.78
2023-03-28T07:24:45.376Z,95436.13
2023-03-28T07:27:16.272Z,95404.91
2023-03-28T07:29:44.062Z,95434.47
2023-03-28T07:32:11.465Z,95429.69
2023-03-28T07:34:38.363Z,95407.84
2023-03-28T07:37:05.575Z,95403.03
2023-03-28T07:39:32.751Z,95436.06
2023-03-28T07:41:59.585Z,95452.22
2023-03-28T07:44:26.492Z,95445.38
2023-03-28T07:46:53.323Z,95427.88
2023-03-28T07:49:21.295Z,95444.59
2023-03-28T07:51:48.321Z,95450.47
2023-03-28T07:54:17.955Z,95450.47
2023-03-28T07:56:48.973Z,95463.72
2023-03-28T07:59:16.387Z,95463.44
2023-03-28T08:01:45.334Z,95466.53
2023-03-28T08:04:13.697Z,95444.81
2023-03-28T08:06:41.270Z,95446.13
2023-03-28T08:09:11.447Z,95449.72
2023-03-28T08:11:40.569Z,95463.34
2023-03-28T08:14:11.621Z,95457.53
2023-03-28T08:16:39.465Z,95464.41
2023-03-28T08:19:11.131Z,95452.34
2023-03-28T08:21:38.604Z,95466.69
2023-03-28T08:24:07.944Z,95444.84
2023-03-28T08:26:35.061Z,95444.25
2023-03-28T08:29:02.483Z,95437.66
2023-03-28T08:31:29.683Z,95440.66
2023-03-28T08:33:58.064Z,95472.47
2023-03-28T08:36:27.316Z,95461.88
2023-03-28T08:39:00.571Z,95470.53
2023-03-28T08:42:00.779Z,95483.63
2023-03-28T08:45:09.044Z,95480.75
2023-03-28T08:48:08.483Z,95476.75
2023-03-28T08:50:41.135Z,95461.53
2023-03-28T08:53:22.203Z,95477.78
2023-03-28T08:55:51.148Z,95472.88
2023-03-28T08:58:23.514Z,95463.97
2023-03-28T09:00:52.293Z,95480.28
2023-03-28T09:03:22.866Z,95479.75
2023-03-28T09:06:05.839Z,95481.50
2023-03-28T09:08:53.256Z,95484.38
2023-03-28T09:11:46.314Z,95471.66
2023-03-28T09:15:14.465Z,95476.94
2023-03-28T09:17:52.927Z,95470.81
2023-03-28T09:20:56.417Z,95465.47
2023-03-28T09:23:59.745Z,95474.50
2023-03-28T09:27:02.008Z,95480.47
2023-03-28T09:29:32.561Z,95471.84
2023-03-28T09:32:13.740Z,95476.91
2023-03-28T09:34:49.384Z,95470.97
2023-03-28T09:37:36.164Z,95479.22
2023-03-28T09:40:24.478Z,95480.34
2023-03-28T09:43:28.703Z,95473.78
2023-03-28T09:46:01.326Z,95481.09
2023-03-28T09:48:34.828Z,95472.81
2023-03-28T09:51:03.349Z,95465.25
2023-03-28T09:53:36.578Z,95466.44
2023-03-28T09:56:29.058Z,95464.69
2023-03-28T09:59:02.752Z,95452.78
2023-03-28T10:01:47.172Z,95457.19
2023-03-28T10:04:32.957Z,95463.22
2023-03-28T10:07:08.979Z,95458.16
2023-03-28T10:09:48.652Z,95468.00
2023-03-28T10:12:24.964Z,95453.16
2023-03-28T10:14:52.194Z,95452.91
2023-03-28T10:17:36.679Z,95450.81
2023-03-28T10:20:21.994Z,95438.03
2023-03-28T10:22:52.986Z,95439.44
2023-03-28T10:25:38.867Z,95436.78
2023-03-28T10:28:08.951Z,95434.88
2023-03-28T10:30:37.727Z,95433.72
2023-03-28T10:33:17.665Z,95436.28
2023-03-28T10:35:59.843Z,95428.47
2023-03-28T10:38:43.602Z,95439.03
2023-03-28T10:41:20.406Z,95419.56
2023-03-28T10:43:47.427Z,95419.69
2023-03-28T10:46:19.295Z,95409.63
2023-03-28T10:48:56.652Z,95412.78
2023-03-28T10:51:26.455Z,95415.19
2023-03-28T10:54:19.644Z,95404.66
2023-03-28T10:57:07.899Z,95410.97
2023-03-28T10:59:40.589Z,95415.72
2023-03-28T11:02:07.451Z,95414.66
2023-03-28T11:05:02.224Z,95411.72
2023-03-28T11:07:39.637Z,95410.53
2023-03-28T11:10:31.108Z,95396.00
2023-03-28T11:13:22.539Z,95401.56
2023-03-28T11:16:27.514Z,95364.94
2023-03-28T11:19:19.086Z,95381.66
2023-03-28T11:22:25.328Z,95386.97
2023-03-28T11:25:05.795Z,95387.28
2023-03-28T11:28:01.486Z,95382.22
2023-03-28T11:30:34.388Z,95386.59
2023-03-28T11:33:42.154Z,95382.34
2023-03-28T11:36:19.250Z,95357.50
2023-03-28T11:39:43.660Z,95380.97
2023-03-28T11:42:20.926Z,95372.66
2023-03-28T11:45:03.143Z,95371.84
2023-03-28T11:47:45.641Z,95372.06
2023-03-28T11:50:23.038Z,95364.31
2023-03-28T11:53:02.456Z,95364.16
2023-03-28T11:55:39.944Z,95368.63
2023-03-28T11:58:36.483Z,95372.31
2023-03-28T12:01:15.861Z,95349.78
2023-03-28T12:04:11.712Z,95348.19
2023-03-28T12:07:02.194Z,95346.81
2023-03-28T12:10:01.182Z,95329.19
2023-03-28T12:12:36.179Z,95322.28
2023-03-28T12:15:22.056Z,95339.56
2023-03-28T12:18:01.096Z,95331.31
2023-03-28T12:20:56.378Z,95318.44
2023-03-28T12:24:06.389Z,95328.66
2023-03-28T12:27:01.158Z,95327.63
2023-03-28T12:29:49.181Z,95320.47
2023-03-28T12:32:24.331Z,95321.13
2023-03-28T12:35:03.076Z,95318.84
2023-03-28T12:37:41.560Z,95307.63
2023-03-28T12:40:25.246Z,95308.50
2023-03-28T12:42:56.694Z,95308.13
2023-03-28T12:45:31.610Z,95290.56
2023-03-28T12:48:08.553Z,95294.94
2023-03-28T12:50:53.026Z,95306.41
2023-03-28T12:53:22.024Z,95297.16
2023-03-28T12:55:51.828Z,95306.69
2023-03-28T12:58:34.050Z,95305.03
2023-03-28T13:01:09.910Z,95295.75
2023-03-28T13:04:01.741Z,95297.03
2023-03-28T13:07:03.963Z,95297.72
2023-03-28T13:10:01.130Z,95298.84
2023-03-28T13:12:44.865Z,95300.16
2023-03-28T13:15:14.523Z,95295.00
2023-03-28T13:18:20.501Z,95284.22
2023-03-28T13:20:51.704Z,95283.66
2023-03-28T13:23:47.157Z,95268.94
2023-03-28T13:26:14.288Z,95266.59
2023-03-28T13:28:51.856Z,95260.03
2023-03-28T13:31:24.716Z,95272.25
2023-03-28T13:34:01.065Z,95258.25
2023-03-28T13:36:32.597Z,95267.31
2023-03-28T13:39:20.621Z,95269.81
2023-03-28T13:41:47.411Z,95277.53
2023-03-28T13:44:20.158Z,95256.09
2023-03-28T13:46:52.586Z,95256.41
2023-03-28T13:49:41.431Z,95250.16
2023-03-28T13:52:22.248Z,95259.56
2023-03-28T13:54:55.812Z,95258.41
2023-03-28T13:57:27.408Z,95245.22
2023-03-28T14:00:06.096Z,95249.50
2023-03-28T14:02:43.838Z,95248.81
2023-03-28T14:05:20.775Z,95246.00
2023-03-28T14:07:48.493Z,95252.72
2023-03-28T14:10:35.412Z,95239.06
2023-03-28T14:13:11.414Z,95225.44
2023-03-28T14:15:40.779Z,95222.41
2023-03-28T14:18:34.540Z,95227.75
2023-03-28T14:21:02.131Z,95223.72
2023-03-28T14:23:31.836Z,95228.53
2023-03-28T14:26:02.648Z,95195.00
2023-03-28T14:28:30.934Z,95214.81
2023-03-28T14:30:58.629Z,95205.38
2023-03-28T14:33:25.964Z,95202.75
2023-03-28T14:36:03.034Z,95207.78
2023-03-28T14:38:39.787Z,95203.94
2023-03-28T14:41:19.415Z,95193.00
2023-03-28T14:43:58.059Z,95203.13
2023-03-28T14:46:29.304Z,95191.28
2023-03-28T14:49:01.407Z,95191.56
2023-03-28T14:51:28.493Z,95183.16
2023-03-28T14:53:56.429Z,95186.50
2023-03-28T14:56:27.615Z,95191.47
2023-03-28T14:58:59.651Z,95187.38
2023-03-28T15:01:27.532Z,95188.56
2023-03-28T15:04:00.451Z,95196.19
2023-03-28T15:06:29.553Z,95187.97
2023-03-28T15:09:00.144Z,95186.53
2023-03-28T15:11:38.127Z,95168.34
2023-03-28T15:14:12.750Z,95175.16
2023-03-28T15:16:42.959Z,95167.09
2023-03-28T15:19:32.280Z,95170.72
2023-03-28T15:22:07.477Z,95171.84
2023-03-28T15:24:36.928Z,95160.56
2023-03-28T15:27:04.665Z,95168.81
2023-03-28T15:29:36.548Z,95166.81
2023-03-28T15:32:14.181Z,95157.63
2023-03-28T15:35:31.958Z,95146.84
2023-03-28T15:38:22.383Z,95144.69
2023-03-28T15:40:52.806Z,95145.84
2023-03-28T15:43:41.821Z,95141.63
2023-03-28T15:46:14.328Z,95140.06
2023-03-28T15:48:43.302Z,95145.31
2023-03-28T15:51:18.540Z,95147.97
2023-03-28T15:53:47.057Z,95143.31
2023-03-28T15:56:27.017Z,95142.28
2023-03-28T15:59:01.100Z,95126.75
2023-03-28T16:01:33.304Z,95132.97
2023-03-28T16:04:31.280Z,95134.78
2023-03-28T16:07:12.469Z,95129.66
2023-03-28T16:09:43.490Z,95136.75
2023-03-28T16:12:15.700Z,95136.34
2023-03-28T16:14:55.534Z,95140.88
2023-03-28T16:17:29.153Z,95142.31
2023-03-28T16:19:57.359Z,95147.78
2023-03-28T16:22:24.993Z,95139.91
2023-03-28T16:24:54.324Z,95142.22
2023-03-28T16:27:22.335Z,95138.03
2023-03-28T16:29:49.522Z,95140.59
2023-03-28T16:32:17.076Z,95141.59
2023-03-28T16:34:44.208Z,95135.28
2023-03-28T16:37:11.682Z,95126.94
2023-03-28T16:39:39.131Z,95121.75
2023-03-28T16:42:06.798Z,95134.63
2023-03-28T16:44:33.940Z,95132.06
2023-03-28T16:47:01.832Z,95125.78
2023-03-28T16:49:29.617Z,95135.28
2023-03-28T16:51:56.888Z,95125.38
2023-03-28T16:54:24.675Z,95132.03
2023-03-28T16:56:51.542Z,95133.81
2023-03-28T16:59:18.670Z,95131.47
2023-03-28T17:01:46.587Z,95138.31
2023-03-28T17:04:13.519Z,95134.75
2023-03-28T17:06:40.527Z,95137.81
2023-03-28T17:09:07.381Z,95136.47
2023-03-28T17:11:34.975Z,95145.03
2023-03-28T17:14:02.044Z,95119.94
2023-03-28T17:16:29.097Z,95126.84
2023-03-28T17:18:56.044Z,95123.69
2023-03-28T17:21:22.861Z,95119.03
2023-03-28T17:23:51.198Z,95110.38
2023-03-28T17:26:18.928Z,95115.84
2023-03-28T17:28:46.132Z,95109.00
2023-03-28T17:31:18.813Z,95107.06
2023-03-28T17:33:47.388Z,95119.50
2023-03-28T17:36:21.773Z,95114.38
2023-03-28T17:38:51.786Z,95103.09
2023-03-28T17:41:20.062Z,95103.50
2023-03-28T17:43:46.963Z,95090.44
2023-03-28T17:46:13.793Z,95090.69
2023-03-28T17:48:41.457Z,95093.06
2023-03-28T17:51:10.638Z,95087.81
2023-03-28T17:53:41.251Z,95081.22
2023-03-28T17:56:09.138Z,95080.09
2023-03-28T17:58:37.829Z,95080.91
2023-03-28T18:01:09.890Z,95082.03
2023-03-28T18:03:37.552Z,95079.81
2023-03-28T18:06:05.151Z,95075.53
2023-03-28T18:08:32.022Z,95081.59
2023-03-28T18:11:08.079Z,95069.06
2023-03-28T18:13:37.289Z,95067.41
2023-03-28T18:16:06.859Z,95064.66
2023-03-28T18:18:34.252Z,95072.06
2023-03-28T18:21:01.212Z,95073.25
2023-03-28T18:23:28.084Z,95062.38
2023-03-28T18:25:54.931Z,95062.63
2023-03-28T18:28:23.568Z,95061.56
2023-03-28T18:30:53.993Z,95056.81
2023-03-28T18:33:23.085Z,95064.69
2023-03-28T18:35:50.186Z,95062.75
2023-03-28T18:38:17.920Z,95035.56
2023-03-28T18:40:44.761Z,95063.13
2023-03-28T18:43:12.203Z,95053.19
2023-03-28T18:45:39.109Z,95063.66
2023-03-28T18:48:06.398Z,95047.16
2023-03-28T18:50:33.313Z,95060.34
2023-03-28T18:53:00.151Z,95062.53
2023-03-28T18:55:27.074Z,95054.13
2023-03-28T18:57:53.884Z,95062.91
2023-03-28T19:00:20.874Z,95046.81
2023-03-28T19:02:49.499Z,95059.06
2023-03-28T19:05:17.726Z,95051.78
2023-03-28T19:07:45.459Z,95055.88
2023-03-28T19:10:13.594Z,95060.38
2023-03-28T19:12:41.877Z,95055.03
2023-03-28T19:15:11.234Z,95048.22
2023-03-28T19:17:40.371Z,95038.28
2023-03-28T19:20:13.139Z,95032.44
2023-03-28T19:22:40.847Z,95041.31
2023-03-28T19:25:09.484Z,95041.81
2023-03-28T19:27:37.963Z,95047.50
2023-03-28T19:30:07.396Z,95031.38
2023-03-28T19:32:34.406Z,95038.81
2023-03-28T19:35:01.254Z,95035.84
2023-03-28T19:37:28.094Z,95042.19
2023-03-28T19:39:58.757Z,95023.03
2023-03-28T19:42:25.630Z,95027.16
2023-03-28T19:44:52.603Z,95028.97
2023-03-28T19:47:19.803Z,95028.84
2023-03-28T19:49:46.773Z,95036.72
2023-03-28T19:52:13.625Z,95041.63
2023-03-28T19:54:40.516Z,95044.31
2023-03-28T19:57:08.440Z,95049.25
2023-03-28T19:59:35.606Z,95051.16
2023-03-28T20:02:02.530Z,95050.63
2023-03-28T20:04:29.549Z,95053.78
2023-03-28T20:06:56.496Z,95056.78
2023-03-28T20:09:24.353Z,95053.28
2023-03-28T20:11:51.470Z,95057.34
2023-03-28T20:14:21.319Z,95057.69
2023-03-28T20:16:48.851Z,95059.91
2023-03-28T20:19:18.222Z,95048.13
2023-03-28T20:21:45.272Z,95040.81
2023-03-28T20:24:12.189Z,95036.53
2023-03-28T20:26:40.039Z,95050.78
2023-03-28T20:29:10.424Z,95049.41
2023-03-28T20:31:37.453Z,95040.41
2023-03-28T20:34:04.386Z,95046.66
2023-03-28T20:36:33.012Z,95038.97
2023-03-28T20:39:04.013Z,95038.97
2023-03-28T20:41:30.881Z,95053.44
2023-03-28T20:44:03.657Z,95045.19
2023-03-28T20:46:34.681Z,95036.97
2023-03-28T20:49:01.650Z,95032.59
2023-03-28T20:51:29.501Z,95033.09
2023-03-28T20:53:59.876Z,95045.38
2023-03-28T20:56:30.247Z,95032.97
2023-03-28T20:58:59.074Z,95017.72
2023-03-28T21:01:30.390Z,95023.88
2023-03-28T21:04:00.274Z,95003.31
2023-03-28T21:06:29.894Z,95014.63
2023-03-28T21:09:00.804Z,94999.50
2023-03-28T21:11:34.234Z,94990.47
2023-03-28T21:14:02.101Z,94986.09
2023-03-28T21:16:31.272Z,94963.47
2023-03-28T21:18:59.896Z,94954.84
2023-03-28T21:21:29.985Z,94933.13
2023-03-28T21:23:57.493Z,94973.94
2023-03-28T21:26:24.928Z,94986.59
2023-03-28T21:28:53.043Z,94971.78
2023-03-28T21:31:26.426Z,94969.53
2023-03-28T21:33:57.463Z,94972.03
2023-03-28T21:36:26.902Z,94969.19
2023-03-28T21:38:54.372Z,94975.81
2023-03-28T21:41:22.643Z,94973.94
2023-03-28T21:43:50.390Z,94966.13
2023-03-28T21:46:18.841Z,94974.41
2023-03-28T21:48:48.287Z,94974.66
2023-03-28T21:51:16.674Z,94981.53
2023-03-28T21:53:43.560Z,94986.03
2023-03-28T21:56:12.900Z,94994.06
2023-03-28T21:58:39.910Z,94987.69
2023-03-28T22:01:06.955Z,94996.47
2023-03-28T22:03:37.478Z,95002.38
2023-03-28T22:06:04.925Z,95002.56
2023-03-28T22:08:31.821Z,94974.00
2023-03-28T22:11:02.469Z,94957.03
2023-03-28T22:13:30.507Z,94982.03
2023-03-28T22:16:00.216Z,94993.72
2023-03-28T22:18:28.175Z,94986.47
2023-03-28T22:20:55.681Z,95006.91
2023-03-28T22:23:24.229Z,95008.09
2023-03-28T22:25:53.165Z,95005.75
2023-03-28T22:28:24.827Z,95010.63
2023-03-28T22:30:55.742Z,95019.03
2023-03-28T22:33:23.691Z,95024.25
2023-03-28T22:35:50.653Z,95015.50
2023-03-28T22:38:19.501Z,95005.75
2023-03-28T22:40:58.712Z,95006.69
2023-03-28T22:43:25.692Z,95016.13
2023-03-28T22:45:52.565Z,95001.78
2023-03-28T22:48:20.524Z,95017.22
2023-03-28T22:50:47.482Z,95016.03
2023-03-28T22:53:15.162Z,95021.25
2023-03-28T22:55:42.713Z,95021.84
2023-03-28T22:58:09.670Z,95042.31
2023-03-28T23:00:36.575Z,95032.59
2023-03-28T23:03:04.102Z,95037.81
2023-03-28T23:05:31.287Z,95036.41
2023-03-28T23:08:00.208Z,95046.59
2023-03-28T23:10:27.532Z,95033.56
2023-03-28T23:12:54.400Z,95010.78
2023-03-28T23:15:21.303Z,95016.94
2023-03-28T23:17:48.613Z,95019.31
2023-03-28T23:20:16.047Z,95004.47
2023-03-28T23:22:45.922Z,95010.72
2023-03-28T23:25:15.717Z,94996.28
2023-03-28T23:27:43.378Z,94989.59
2023-03-28T23:30:12.319Z,94975.66
2023-03-28T23:32:39.552Z,94975.81
2023-03-28T23:35:09.696Z,94958.13
2023-03-28T23:37:38.562Z,94944.25
2023-03-28T23:40:10.727Z,94941.91
2023-03-28T23:42:37.826Z,94936.88
2023-03-28T23:45:05.165Z,94941.06
2023-03-28T23:47:32.013Z,94939.91
2023-03-28T23:49:59.563Z,94932.28
2023-03-28T23:52:26.481Z,94909.91
2023-03-28T23:54:53.356Z,94909.09
2023-03-28T23:57:20.223Z,94904.41
2023-03-28T23:59:47.154Z,94899.25
